Time;durP1;ratioP1;P1;durP2;ratioP2;P2;SDS_P1;SDS_P2;PMS_P1;PMS_P2;Temp;Humidity;BMP_temperature;BMP_pressure;BME280_temperature;BME280_humidity;BME280_pressure;Samples;Min_cycle;Max_cycle;Signal;HPM_P1;HPM_P2
2021/03/01 00:00:28;;;;;;;2.20;1.97;;;20.30;45.20;;;;;;5081678;28;20476;-73
2021/03/01 00:02:54;;;;;;;2.43;2.33;;;20.30;45.10;;;;;;5080787;28;20480;-73
2021/03/01 00:05:20;;;;;;;2.23;2.13;;;20.30;45.20;;;;;;5079819;28;20491;-73
2021/03/01 00:07:47;;;;;;;1.80;1.70;;;20.30;45.10;;;;;;5084317;28;20477;-73
2021/03/01 00:10:14;;;;;;;2.07;1.97;;;20.30;45.20;;;;;;5078895;28;20477;-74
2021/03/01 00:12:40;;;;;;;2.03;1.93;;;20.30;45.10;;;;;;5079768;28;20542;-73
2021/03/01 00:15:07;;;;;;;2.00;1.80;;;20.30;45.20;;;;;;5079729;28;20491;-73
2021/03/01 00:17:34;;;;;;;2.03;1.93;;;20.30;45.30;;;;;;5082398;28;20531;-73
2021/03/01 00:20:00;;;;;;;1.97;1.87;;;20.30;45.30;;;;;;5078708;28;20501;-73
2021/03/01 00:22:26;;;;;;;2.00;1.90;;;20.30;45.40;;;;;;5071573;28;20474;-73
2021/03/01 00:24:53;;;;;;;2.17;1.80;;;20.30;45.30;;;;;;5079565;28;20480;-73
2021/03/01 00:27:20;;;;;;;2.00;1.63;;;20.30;45.40;;;;;;5077873;28;20484;-72
2021/03/01 00:29:46;;;;;;;1.83;1.70;;;20.30;45.30;;;;;;5077710;28;20517;-74
2021/03/01 00:32:12;;;;;;;2.80;2.60;;;20.30;45.30;;;;;;5073459;28;20485;-73
2021/03/01 00:34:38;;;;;;;2.00;1.90;;;20.30;45.20;;;;;;5074920;28;20480;-74
2021/03/01 00:37:04;;;;;;;1.50;1.50;;;20.30;45.20;;;;;;5079267;28;20484;-73
2021/03/01 00:39:31;;;;;;;2.13;1.90;;;20.30;45.30;;;;;;5096878;27;20513;-73
2021/03/01 00:41:58;;;;;;;1.87;1.77;;;20.30;45.20;;;;;;5082574;27;21164;-73
2021/03/01 00:44:24;;;;;;;1.60;1.50;;;20.30;45.30;;;;;;5078023;28;20869;-73
2021/03/01 00:46:50;;;;;;;2.00;1.90;;;20.30;45.30;;;;;;5081566;28;20544;-73
2021/03/01 00:49:16;;;;;;;1.90;1.80;;;20.30;45.30;;;;;;5083832;28;20481;-74
2021/03/01 00:51:42;;;;;;;2.33;1.63;;;20.30;45.20;;;;;;5078231;28;20487;-73
2021/03/01 00:54:09;;;;;;;1.80;1.70;;;20.30;45.30;;;;;;5068382;28;20547;-74
2021/03/01 00:56:35;;;;;;;2.67;1.93;;;20.20;45.40;;;;;;5098467;27;20475;-74
2021/03/01 00:59:02;;;;;;;2.40;2.20;;;20.20;45.50;;;;;;5082258;27;20485;-74
2021/03/01 01:01:28;;;;;;;1.47;1.40;;;20.30;45.60;;;;;;5078841;28;20484;-74
2021/03/01 01:03:54;;;;;;;1.67;1.57;;;20.30;45.70;;;;;;5078422;28;20873;-73
2021/03/01 01:06:21;;;;;;;3.70;2.00;;;20.30;45.70;;;;;;5077133;28;20480;-73
2021/03/01 01:08:47;;;;;;;1.60;1.50;;;20.40;45.70;;;;;;5079108;28;20484;-74
2021/03/01 01:11:13;;;;;;;1.70;1.60;;;20.40;45.50;;;;;;5058699;27;20491;-74
2021/03/01 01:13:39;;;;;;;1.77;1.53;;;20.40;45.30;;;;;;5073756;28;20507;-73
2021/03/01 01:16:07;;;;;;;1.50;1.50;;;20.30;45.40;;;;;;5078409;28;21212;-74
2021/03/01 01:18:33;;;;;;;1.90;1.80;;;20.20;45.40;;;;;;5076610;28;20538;-72
2021/03/01 01:20:59;;;;;;;3.70;3.00;;;20.20;45.50;;;;;;5067936;28;20481;-73
2021/03/01 01:23:25;;;;;;;2.40;1.67;;;20.20;45.60;;;;;;5087999;28;20670;-73
2021/03/01 01:25:51;;;;;;;1.60;1.50;;;20.20;45.50;;;;;;5078548;28;20503;-74
2021/03/01 01:28:18;;;;;;;1.60;1.50;;;20.20;45.50;;;;;;5070574;28;20507;-73
2021/03/01 01:30:45;;;;;;;2.00;1.80;;;20.20;45.40;;;;;;5054705;28;21071;-73
2021/03/01 01:33:12;;;;;;;2.27;1.90;;;20.20;45.40;;;;;;5079672;28;20478;-73
2021/03/01 01:35:38;;;;;;;1.67;1.53;;;20.20;45.40;;;;;;5075734;28;20476;-73
2021/03/01 01:38:05;;;;;;;1.73;1.50;;;20.20;46.10;;;;;;5096267;27;21017;-73
2021/03/01 01:40:31;;;;;;;2.70;1.70;;;20.20;45.40;;;;;;5076185;28;21048;-73
2021/03/01 01:42:57;;;;;;;1.60;1.50;;;20.20;45.40;;;;;;5077468;28;20851;-73
2021/03/01 01:45:25;;;;;;;1.70;1.60;;;20.20;45.40;;;;;;5072059;28;20493;-74
2021/03/01 01:47:51;;;;;;;2.70;2.50;;;20.20;45.60;;;;;;5076690;27;20499;-74
2021/03/01 01:50:19;;;;;;;1.90;1.80;;;20.20;45.30;;;;;;5088962;27;20482;-73
2021/03/01 01:52:46;;;;;;;1.30;1.30;;;20.20;45.40;;;;;;5066235;28;20481;-73
2021/03/01 01:55:12;;;;;;;1.70;1.60;;;20.20;45.40;;;;;;5075665;28;20484;-73
2021/03/01 01:57:38;;;;;;;2.30;2.10;;;20.20;45.40;;;;;;5070663;28;20499;-73
2021/03/01 02:00:08;;;;;;;1.70;1.60;;;20.20;45.40;;;;;;5081147;28;20468;-72
2021/03/01 02:02:34;;;;;;;2.10;1.43;;;20.20;45.40;;;;;;5074634;28;21123;-73
2021/03/01 02:05:03;;;;;;;1.43;1.43;;;20.20;45.30;;;;;;5079551;28;20491;-74
2021/03/01 02:07:32;;;;;;;1.23;1.23;;;20.20;45.40;;;;;;5075963;28;20490;-73
2021/03/01 02:10:03;;;;;;;1.83;1.67;;;20.20;45.40;;;;;;5078050;28;20545;-73
2021/03/01 02:12:40;;;;;;;1.73;1.60;;;20.20;45.60;;;;;;5066920;28;20501;-74
2021/03/01 02:15:08;;;;;;;1.70;1.60;;;20.20;45.60;;;;;;5098796;28;20555;-72
2021/03/01 02:17:34;;;;;;;2.20;1.67;;;20.20;45.40;;;;;;5077790;28;20533;-72
2021/03/01 02:20:00;;;;;;;2.00;1.90;;;20.10;45.50;;;;;;5078712;28;20491;-73
2021/03/01 02:22:28;;;;;;;1.80;1.70;;;20.20;45.50;;;;;;5078087;28;20482;-74
2021/03/01 02:24:55;;;;;;;1.70;1.60;;;20.10;45.30;;;;;;5077710;28;20484;-74
2021/03/01 02:27:23;;;;;;;1.33;1.23;;;20.10;45.20;;;;;;5065879;28;21207;-73
2021/03/01 02:29:51;;;;;;;2.10;2.00;;;20.20;45.40;;;;;;5085938;28;20530;-74
2021/03/01 02:32:17;;;;;;;1.80;1.70;;;20.10;45.30;;;;;;5074655;28;20482;-73
2021/03/01 02:34:44;;;;;;;1.90;1.77;;;20.20;45.30;;;;;;5078970;28;20473;-74
2021/03/01 02:37:11;;;;;;;2.57;1.87;;;20.20;45.30;;;;;;5077454;28;20473;-74
2021/03/01 02:39:41;;;;;;;2.60;1.83;;;20.10;45.30;;;;;;5074018;28;20587;-74
2021/03/01 02:42:08;;;;;;;1.80;1.70;;;20.20;45.50;;;;;;5082393;28;20557;-74
2021/03/01 02:44:34;;;;;;;1.90;1.80;;;20.20;45.40;;;;;;5076924;28;20534;-73
2021/03/01 02:47:01;;;;;;;2.27;1.60;;;20.20;45.30;;;;;;5077089;28;20476;-73
2021/03/01 02:49:27;;;;;;;1.73;1.63;;;20.20;45.50;;;;;;5074391;28;20477;-73
2021/03/01 02:51:53;;;;;;;1.50;1.50;;;20.20;45.40;;;;;;5077554;28;20488;-74
2021/03/01 02:54:21;;;;;;;1.50;1.40;;;20.20;45.30;;;;;;5074748;28;20554;-73
2021/03/01 02:56:48;;;;;;;1.70;1.60;;;20.20;45.40;;;;;;5085282;28;20483;-72
2021/03/01 02:59:14;;;;;;;1.70;1.50;;;20.30;45.50;;;;;;5067006;28;20554;-73
2021/03/01 03:01:40;;;;;;;1.90;1.80;;;20.30;45.60;;;;;;5093350;28;20481;-73
2021/03/01 03:04:06;;;;;;;1.53;1.43;;;20.30;45.50;;;;;;5109253;28;20480;-74
2021/03/01 03:06:34;;;;;;;2.10;2.00;;;20.30;45.20;;;;;;5110928;28;20488;-73
2021/03/01 03:09:00;;;;;;;1.73;1.63;;;20.30;45.10;;;;;;5098684;28;20488;-73
2021/03/01 03:11:27;;;;;;;1.30;1.20;;;20.30;45.10;;;;;;5082499;28;21104;-73
2021/03/01 03:13:54;;;;;;;1.60;1.50;;;20.30;45.20;;;;;;5082125;28;20485;-73
2021/03/01 03:16:22;;;;;;;1.40;1.30;;;20.30;46.00;;;;;;5081465;28;20484;-74
2021/03/01 03:18:48;;;;;;;1.30;1.20;;;20.20;45.20;;;;;;5086606;28;21083;-71
2021/03/01 03:21:14;;;;;;;1.77;1.67;;;20.20;45.20;;;;;;5078619;28;20473;-72
2021/03/01 03:23:40;;;;;;;1.50;1.33;;;20.30;45.20;;;;;;5080781;28;20481;-72
2021/03/01 03:26:07;;;;;;;2.20;1.43;;;20.20;45.10;;;;;;5081399;28;20541;-72
2021/03/01 03:28:33;;;;;;;2.10;1.90;;;20.20;45.20;;;;;;5081011;28;20546;-71
2021/03/01 03:31:00;;;;;;;1.43;1.33;;;20.20;45.20;;;;;;5081023;28;20472;-72
2021/03/01 03:33:26;;;;;;;1.40;1.30;;;20.20;45.20;;;;;;5082856;27;20491;-74
2021/03/01 03:35:52;;;;;;;1.73;1.63;;;20.20;45.20;;;;;;5077820;28;20484;-74
2021/03/01 03:38:21;;;;;;;1.57;1.47;;;20.20;45.20;;;;;;5076313;28;20476;-72
2021/03/01 03:40:49;;;;;;;1.60;1.50;;;20.20;45.00;;;;;;5069561;28;20476;-73
2021/03/01 03:43:16;;;;;;;0.93;0.93;;;20.20;45.20;;;;;;5075570;27;20497;-74
2021/03/01 03:45:42;;;;;;;1.60;1.57;;;20.20;45.10;;;;;;5101963;27;20485;-73
2021/03/01 03:48:09;;;;;;;0.97;0.97;;;20.30;45.20;;;;;;5080214;28;20938;-72
2021/03/01 03:50:35;;;;;;;1.60;1.50;;;20.30;45.20;;;;;;5081674;27;20489;-73
2021/03/01 03:53:04;;;;;;;1.43;1.37;;;20.30;45.20;;;;;;5075905;28;20484;-73
2021/03/01 03:55:31;;;;;;;1.27;1.17;;;20.30;45.10;;;;;;5067501;28;20881;-73
2021/03/01 03:57:59;;;;;;;1.30;1.30;;;20.30;45.10;;;;;;5079640;28;20473;-73
2021/03/01 04:00:26;;;;;;;1.27;1.27;;;20.20;45.10;;;;;;5079515;28;20477;-72
2021/03/01 04:02:53;;;;;;;1.53;1.43;;;20.20;45.10;;;;;;5076238;28;20534;-73
2021/03/01 04:05:20;;;;;;;1.33;1.23;;;20.20;45.10;;;;;;5079540;28;20477;-72
2021/03/01 04:07:46;;;;;;;1.00;1.00;;;20.30;45.10;;;;;;5068999;28;20476;-73
2021/03/01 04:10:13;;;;;;;1.10;1.10;;;20.30;44.90;;;;;;5101174;27;20585;-74
2021/03/01 04:12:39;;;;;;;1.00;1.00;;;20.30;44.80;;;;;;5073707;28;20958;-74
2021/03/01 04:15:06;;;;;;;2.10;1.73;;;20.40;44.60;;;;;;5077369;28;20496;-73
2021/03/01 04:17:34;;;;;;;1.37;1.27;;;20.40;44.60;;;;;;5078280;28;20477;-72
2021/03/01 04:20:01;;;;;;;1.43;1.43;;;20.50;44.40;;;;;;5085692;28;20862;-73
2021/03/01 04:22:28;;;;;;;1.30;0.87;;;20.50;45.00;;;;;;5078583;28;20492;-73
2021/03/01 04:24:54;;;;;;;1.73;1.10;;;20.50;44.10;;;;;;5077524;28;21023;-73
2021/03/01 04:27:20;;;;;;;1.10;1.10;;;20.50;44.10;;;;;;5078887;28;20493;-74
2021/03/01 04:29:46;;;;;;;1.73;1.40;;;20.50;44.00;;;;;;5078624;28;20843;-73
2021/03/01 04:32:13;;;;;;;1.60;1.50;;;20.50;44.10;;;;;;5073097;28;20487;-73
2021/03/01 04:34:39;;;;;;;1.70;1.10;;;20.60;44.10;;;;;;5076561;28;20479;-74
2021/03/01 04:37:05;;;;;;;1.20;1.20;;;20.60;44.10;;;;;;5072887;28;20492;-74
2021/03/01 04:39:32;;;;;;;1.47;1.10;;;20.50;44.00;;;;;;5074743;28;20597;-74
2021/03/01 04:41:58;;;;;;;1.07;1.07;;;20.50;44.10;;;;;;5076684;28;20544;-72
2021/03/01 04:44:24;;;;;;;1.73;1.57;;;20.60;44.20;;;;;;5078465;28;20971;-73
2021/03/01 04:46:52;;;;;;;2.93;1.60;;;20.60;44.10;;;;;;5079173;28;20491;-73
2021/03/01 04:49:19;;;;;;;1.60;1.50;;;20.60;44.00;;;;;;5069517;28;20981;-73
2021/03/01 04:51:45;;;;;;;1.40;1.07;;;20.60;44.00;;;;;;5076499;28;20481;-73
2021/03/01 04:54:11;;;;;;;1.40;1.30;;;20.60;44.00;;;;;;5070243;28;20477;-73
2021/03/01 04:56:42;;;;;;;1.63;1.40;;;20.60;44.00;;;;;;5074486;28;20481;-72
2021/03/01 04:59:09;;;;;;;1.90;1.00;;;20.60;44.10;;;;;;5075907;28;20491;-74
2021/03/01 05:01:35;;;;;;;2.40;1.40;;;20.50;44.10;;;;;;5070993;28;20575;-74
2021/03/01 05:04:01;;;;;;;1.50;1.40;;;20.50;44.10;;;;;;5071079;28;20486;-74
2021/03/01 05:06:27;;;;;;;1.03;1.03;;;20.50;44.30;;;;;;5072364;28;20495;-74
2021/03/01 05:08:53;;;;;;;1.40;1.30;;;20.50;44.30;;;;;;5069469;27;21058;-74
2021/03/01 05:11:28;;;;;;;1.23;1.13;;;20.50;44.30;;;;;;5095610;27;20476;-74
2021/03/01 05:13:55;;;;;;;1.10;1.10;;;20.50;44.30;;;;;;5070767;28;20480;-72
2021/03/01 05:16:24;;;;;;;1.60;1.50;;;20.50;44.30;;;;;;5073606;28;20926;-73
2021/03/01 05:18:50;;;;;;;1.60;1.50;;;20.50;44.30;;;;;;5074914;28;20480;-73
2021/03/01 05:21:16;;;;;;;2.17;1.63;;;20.50;44.20;;;;;;5072146;28;21057;-74
2021/03/01 05:23:42;;;;;;;2.37;1.77;;;20.50;44.20;;;;;;5075006;28;20480;-74
2021/03/01 05:26:09;;;;;;;1.67;1.57;;;20.50;44.10;;;;;;5070207;28;20486;-73
2021/03/01 05:28:36;;;;;;;1.37;1.27;;;20.50;44.10;;;;;;5085633;27;20490;-73
2021/03/01 05:31:03;;;;;;;1.87;1.77;;;20.50;44.10;;;;;;5075574;28;20573;-73
2021/03/01 05:33:29;;;;;;;1.60;1.40;;;20.50;44.10;;;;;;5071940;28;20481;-72
2021/03/01 05:35:55;;;;;;;1.80;1.63;;;20.50;44.00;;;;;;5074699;28;20508;-74
2021/03/01 05:38:22;;;;;;;1.77;1.67;;;20.50;43.90;;;;;;5074319;28;21018;-74
2021/03/01 05:40:48;;;;;;;2.17;1.93;;;20.60;44.10;;;;;;5077128;28;20472;-74
2021/03/01 05:43:14;;;;;;;1.40;1.27;;;20.60;44.10;;;;;;5074766;28;20995;-72
2021/03/01 05:45:41;;;;;;;1.10;1.10;;;20.60;44.00;;;;;;5081011;28;20530;-74
2021/03/01 05:48:09;;;;;;;1.60;1.50;;;20.60;44.00;;;;;;5072890;28;20497;-74
2021/03/01 05:50:35;;;;;;;2.57;1.87;;;20.50;43.90;;;;;;5083853;28;20468;-73
2021/03/01 05:53:01;;;;;;;1.63;1.53;;;20.60;43.90;;;;;;5066514;28;20854;-74
2021/03/01 05:55:28;;;;;;;1.50;1.40;;;20.60;43.90;;;;;;5074041;28;20488;-74
2021/03/01 05:57:54;;;;;;;1.57;1.50;;;20.60;44.00;;;;;;5074611;28;20481;-74
2021/03/01 06:00:21;;;;;;;1.83;1.70;;;20.60;43.90;;;;;;5075334;28;20972;-73
2021/03/01 06:02:47;;;;;;;1.53;1.43;;;20.60;43.80;;;;;;5077160;28;20488;-74
2021/03/01 06:05:16;;;;;;;1.30;1.20;;;20.70;43.80;;;;;;5077514;28;20480;-74
2021/03/01 06:07:42;;;;;;;1.47;1.37;;;20.70;43.80;;;;;;5077569;28;20542;-74
2021/03/01 06:10:10;;;;;;;2.40;2.20;;;20.60;43.80;;;;;;5075456;28;20536;-73
2021/03/01 06:12:36;;;;;;;1.40;1.30;;;20.60;43.80;;;;;;5076437;28;20476;-74
2021/03/01 06:15:03;;;;;;;1.47;1.37;;;20.60;43.70;;;;;;5075807;28;20998;-73
2021/03/01 06:17:29;;;;;;;1.40;1.37;;;20.60;44.60;;;;;;5078364;28;20496;-74
2021/03/01 06:19:56;;;;;;;1.90;1.23;;;20.60;43.80;;;;;;5078200;28;20484;-73
2021/03/01 06:22:24;;;;;;;2.30;1.37;;;20.60;43.80;;;;;;5076904;28;20495;-73
2021/03/01 06:25:04;;;;;;;1.53;1.40;;;20.60;43.90;;;;;;5075606;28;20489;-74
2021/03/01 06:27:30;;;;;;;3.43;1.53;;;20.60;43.80;;;;;;5064357;28;20473;-74
2021/03/01 06:30:10;;;;;;;2.10;1.73;;;20.60;43.80;;;;;;5077313;28;20984;-74
2021/03/01 06:32:36;;;;;;;2.07;1.60;;;20.60;43.70;;;;;;5076919;28;20481;-75
2021/03/01 06:35:02;;;;;;;1.67;1.57;;;20.60;43.70;;;;;;5105279;28;20479;-75
2021/03/01 06:37:29;;;;;;;3.37;1.77;;;20.60;43.70;;;;;;5115987;28;20460;-74
2021/03/01 06:39:56;;;;;;;1.63;1.53;;;20.60;43.70;;;;;;5109499;28;20461;-75
2021/03/01 06:42:26;;;;;;;1.70;1.60;;;20.60;43.80;;;;;;5083781;28;20468;-73
2021/03/01 06:45:12;;;;;;;1.60;1.50;;;20.70;43.80;;;;;;5082189;28;20481;-74
2021/03/01 06:47:51;;;;;;;1.57;1.40;;;20.70;43.70;;;;;;5061786;28;20473;-74
2021/03/01 06:50:35;;;;;;;1.23;1.20;;;20.70;43.70;;;;;;5076107;28;20476;-73
2021/03/01 06:53:14;;;;;;;1.73;1.60;;;20.70;43.70;;;;;;5078408;28;21493;-74
2021/03/01 06:55:53;;;;;;;3.17;2.00;;;20.70;43.50;;;;;;5073050;28;20489;-73
2021/03/01 06:58:20;;;;;;;1.53;1.40;;;20.70;43.60;;;;;;5081076;28;20484;-74
2021/03/01 07:00:46;;;;;;;1.80;1.70;;;20.70;43.70;;;;;;5081081;28;20487;-74
2021/03/01 07:03:20;;;;;;;1.73;1.60;;;20.60;43.70;;;;;;5082175;27;20488;-73
2021/03/01 07:05:50;;;;;;;1.50;1.40;;;20.60;43.70;;;;;;5079059;28;20538;-73
2021/03/01 07:08:37;;;;;;;2.20;2.07;;;20.60;43.60;;;;;;5080007;28;20489;-71
2021/03/01 07:11:04;;;;;;;2.00;1.90;;;20.60;43.60;;;;;;5068223;28;20906;-72
2021/03/01 07:13:31;;;;;;;2.93;1.50;;;20.60;43.60;;;;;;5111449;27;21000;-74
2021/03/01 07:15:58;;;;;;;1.30;1.20;;;20.60;43.60;;;;;;5081159;28;20472;-74
2021/03/01 07:18:25;;;;;;;1.20;1.20;;;20.60;43.60;;;;;;5081893;28;20464;-74
2021/03/01 07:20:52;;;;;;;3.53;1.80;;;20.60;43.60;;;;;;5080880;28;20533;-74
2021/03/01 07:23:19;;;;;;;1.13;1.13;;;20.60;43.70;;;;;;5076498;28;20895;-73
2021/03/01 07:25:45;;;;;;;1.63;1.53;;;20.60;43.80;;;;;;5079048;28;20618;-72
2021/03/01 07:28:13;;;;;;;1.90;1.80;;;20.60;43.80;;;;;;5078502;28;20481;-71
2021/03/01 07:30:40;;;;;;;1.77;1.60;;;20.60;43.70;;;;;;5073142;28;20485;-73
2021/03/01 07:33:06;;;;;;;1.27;1.27;;;20.60;43.70;;;;;;5079878;28;20488;-73
2021/03/01 07:35:32;;;;;;;2.00;1.57;;;20.60;43.70;;;;;;5079812;28;20519;-73
2021/03/01 07:37:59;;;;;;;1.90;1.80;;;20.60;43.70;;;;;;5079397;28;20485;-73
2021/03/01 07:40:26;;;;;;;1.70;1.60;;;20.60;43.70;;;;;;5083561;28;20472;-74
2021/03/01 07:42:52;;;;;;;1.87;1.77;;;20.50;43.60;;;;;;5078675;28;20987;-74
2021/03/01 07:45:18;;;;;;;1.57;1.57;;;20.50;43.60;;;;;;5078047;28;20493;-71
2021/03/01 07:47:45;;;;;;;2.20;2.00;;;20.50;43.60;;;;;;5079840;28;20484;-73
2021/03/01 07:50:12;;;;;;;1.70;1.60;;;20.50;43.70;;;;;;5080356;28;20911;-72
2021/03/01 07:52:38;;;;;;;2.17;1.73;;;20.50;43.70;;;;;;5074988;28;20490;-72
2021/03/01 07:55:06;;;;;;;1.83;1.73;;;20.50;43.80;;;;;;5084745;28;20493;-73
2021/03/01 07:57:34;;;;;;;2.20;1.97;;;20.50;43.70;;;;;;5078769;28;20480;-73
2021/03/01 08:00:21;;;;;;;2.00;1.90;;;20.50;43.70;;;;;;5080145;28;21434;-73
2021/03/01 08:02:47;;;;;;;1.70;1.60;;;20.60;43.70;;;;;;5072261;28;20497;-73
2021/03/01 08:05:21;;;;;;;2.20;2.00;;;20.50;43.60;;;;;;5073663;28;20569;-74
2021/03/01 08:07:47;;;;;;;2.07;1.97;;;20.50;43.60;;;;;;5078465;28;21451;-73
2021/03/01 08:10:16;;;;;;;1.57;1.47;;;20.50;43.60;;;;;;5079175;28;21049;-72
2021/03/01 08:13:01;;;;;;;2.03;1.93;;;20.50;43.60;;;;;;5083198;28;20483;-73
2021/03/01 08:15:38;;;;;;;3.17;1.93;;;20.50;43.60;;;;;;5067469;28;20487;-72
2021/03/01 08:18:04;;;;;;;2.00;1.80;;;20.50;43.70;;;;;;5074394;28;20496;-72
2021/03/01 08:20:55;;;;;;;1.47;1.37;;;20.40;43.60;;;;;;5086131;28;20499;-72
2021/03/01 08:23:34;;;;;;;1.30;1.20;;;20.40;43.70;;;;;;5061231;28;20468;-72
2021/03/01 08:26:02;;;;;;;2.00;1.50;;;20.40;43.80;;;;;;5075240;28;20488;-72
2021/03/01 08:28:48;;;;;;;1.70;1.60;;;20.40;43.90;;;;;;5063166;28;20478;-72
2021/03/01 08:31:24;;;;;;;1.83;1.73;;;20.40;43.80;;;;;;5074957;28;21134;-73
2021/03/01 08:33:51;;;;;;;1.57;1.47;;;20.50;43.80;;;;;;5078384;28;20484;-73
2021/03/01 08:36:22;;;;;;;1.97;1.87;;;20.50;43.80;;;;;;5078078;28;20492;-72
2021/03/01 08:38:49;;;;;;;1.67;1.60;;;20.50;43.90;;;;;;5078699;28;20479;-72
2021/03/01 08:41:16;;;;;;;1.73;1.63;;;20.50;43.80;;;;;;5073541;28;21568;-71
2021/03/01 08:43:43;;;;;;;1.80;1.70;;;20.50;43.80;;;;;;5077463;28;20527;-72
2021/03/01 08:46:18;;;;;;;1.80;1.70;;;20.40;43.70;;;;;;5078370;28;20484;-73
2021/03/01 08:48:45;;;;;;;2.07;1.90;;;20.40;43.80;;;;;;5075513;28;21063;-71
2021/03/01 08:51:12;;;;;;;1.77;1.67;;;20.40;43.80;;;;;;5079579;28;20484;-71
2021/03/01 08:53:38;;;;;;;2.13;1.83;;;20.40;43.90;;;;;;5071948;28;20477;-74
2021/03/01 08:56:04;;;;;;;1.60;1.50;;;20.30;43.70;;;;;;5078865;28;20481;-73
2021/03/01 08:58:34;;;;;;;2.53;2.00;;;20.30;43.80;;;;;;5078693;28;20473;-74
2021/03/01 09:01:01;;;;;;;2.10;1.90;;;20.30;43.80;;;;;;5066898;28;20481;-74
2021/03/01 09:03:29;;;;;;;2.30;2.10;;;20.30;44.00;;;;;;5068250;28;21145;-74
2021/03/01 09:06:04;;;;;;;1.67;1.57;;;20.30;43.90;;;;;;5078744;28;20465;-74
2021/03/01 09:08:32;;;;;;;2.90;2.20;;;20.30;43.90;;;;;;5070574;28;20484;-73
2021/03/01 09:11:00;;;;;;;2.33;2.13;;;20.30;43.90;;;;;;5067519;28;20465;-74
2021/03/01 09:13:26;;;;;;;1.60;1.50;;;20.30;43.90;;;;;;5071681;27;20482;-73
2021/03/01 09:15:52;;;;;;;1.67;1.57;;;20.30;44.00;;;;;;5103795;27;20472;-73
2021/03/01 09:18:19;;;;;;;1.80;1.70;;;20.30;44.00;;;;;;5077618;28;21266;-73
2021/03/01 09:20:49;;;;;;;1.77;1.67;;;20.30;44.10;;;;;;5086617;27;20479;-73
2021/03/01 09:23:15;;;;;;;1.67;1.57;;;20.30;44.10;;;;;;5095782;27;21008;-73
2021/03/01 09:25:42;;;;;;;2.23;2.13;;;20.30;44.10;;;;;;5094616;27;20472;-73
2021/03/01 09:28:08;;;;;;;1.80;1.57;;;20.30;44.00;;;;;;5075426;28;20539;-73
2021/03/01 09:30:34;;;;;;;2.07;1.90;;;20.30;44.00;;;;;;5068305;28;20522;-74
2021/03/01 09:33:02;;;;;;;2.03;1.83;;;20.30;43.90;;;;;;5109412;27;20500;-73
2021/03/01 09:35:30;;;;;;;1.63;1.53;;;20.30;43.90;;;;;;5063465;28;20847;-73
2021/03/01 09:37:57;;;;;;;2.20;1.90;;;20.30;44.00;;;;;;5071116;28;20480;-73
2021/03/01 09:40:24;;;;;;;2.60;2.40;;;20.30;44.10;;;;;;5077744;28;20468;-73
2021/03/01 09:42:51;;;;;;;2.27;2.17;;;20.30;44.20;;;;;;5071267;28;20504;-72
2021/03/01 09:45:17;;;;;;;1.70;1.60;;;20.30;44.10;;;;;;5074119;28;21640;-72
2021/03/01 09:47:44;;;;;;;2.20;2.07;;;20.30;44.10;;;;;;5077998;28;20484;-72
2021/03/01 09:50:10;;;;;;;1.97;1.70;;;20.30;44.10;;;;;;5082662;28;20481;-72
2021/03/01 09:52:37;;;;;;;1.97;1.87;;;20.30;44.10;;;;;;5073033;28;20480;-73
2021/03/01 09:55:05;;;;;;;2.27;2.17;;;20.30;44.00;;;;;;5074606;28;20489;-72
2021/03/01 09:57:31;;;;;;;2.30;2.20;;;20.30;44.00;;;;;;5076858;28;21270;-73
2021/03/01 09:59:57;;;;;;;1.93;1.80;;;20.30;44.00;;;;;;5073170;27;20545;-71
2021/03/01 10:02:24;;;;;;;2.20;2.00;;;20.30;44.10;;;;;;5101092;28;20481;-73
2021/03/01 10:04:51;;;;;;;1.83;1.73;;;20.20;44.30;;;;;;5087449;28;20468;-73
2021/03/01 10:07:18;;;;;;;2.33;2.20;;;20.20;44.40;;;;;;5107567;28;20472;-73
2021/03/01 10:09:45;;;;;;;2.77;2.40;;;20.20;44.50;;;;;;5107986;28;20484;-73
2021/03/01 10:12:12;;;;;;;2.40;2.20;;;20.20;44.40;;;;;;5095381;28;20492;-73
2021/03/01 10:14:38;;;;;;;2.60;2.40;;;20.20;44.40;;;;;;5078838;28;20484;-73
2021/03/01 10:17:15;;;;;;;2.90;2.10;;;20.20;44.30;;;;;;5078637;28;20489;-73
2021/03/01 10:19:41;;;;;;;2.40;2.20;;;20.20;44.30;;;;;;5086325;28;20996;-73
2021/03/01 10:22:07;;;;;;;1.70;1.60;;;20.20;44.30;;;;;;5077141;28;20523;-73
2021/03/01 10:24:42;;;;;;;2.13;2.00;;;20.20;44.30;;;;;;5076751;28;20500;-71
2021/03/01 10:27:08;;;;;;;2.57;2.37;;;20.20;44.20;;;;;;5078243;28;20908;-73
2021/03/01 10:29:36;;;;;;;2.10;1.90;;;20.30;44.30;;;;;;5077313;28;20484;-72
2021/03/01 10:32:03;;;;;;;2.60;2.40;;;20.20;44.20;;;;;;5076136;28;20492;-72
2021/03/01 10:34:30;;;;;;;2.63;2.40;;;20.20;44.20;;;;;;5073496;28;20484;-71
2021/03/01 10:36:58;;;;;;;2.93;2.73;;;20.20;44.20;;;;;;5075487;28;20484;-72
2021/03/01 10:39:25;;;;;;;3.30;2.23;;;20.20;44.20;;;;;;5074741;28;20557;-73
2021/03/01 10:41:51;;;;;;;1.90;1.80;;;20.20;44.20;;;;;;5074419;28;21540;-73
2021/03/01 10:44:18;;;;;;;2.57;1.83;;;20.30;44.30;;;;;;5075039;28;20580;-72
2021/03/01 10:46:46;;;;;;;2.40;2.20;;;20.30;44.30;;;;;;5076320;28;20502;-73
2021/03/01 10:49:29;;;;;;;2.80;2.60;;;20.30;44.20;;;;;;5081476;28;21171;-73
2021/03/01 10:51:56;;;;;;;3.10;2.23;;;20.30;44.20;;;;;;5066957;28;21032;-73
2021/03/01 10:54:23;;;;;;;3.97;2.50;;;20.30;44.20;;;;;;5073632;28;20488;-72
2021/03/01 10:56:49;;;;;;;3.30;2.70;;;20.20;44.10;;;;;;5096075;28;20482;-70
2021/03/01 10:59:15;;;;;;;2.30;2.20;;;20.20;44.20;;;;;;5078924;28;20485;-72
2021/03/01 11:01:42;;;;;;;3.57;2.30;;;20.30;44.20;;;;;;5079733;28;20493;-73
2021/03/01 11:04:10;;;;;;;2.13;2.03;;;20.20;44.20;;;;;;5077863;28;20487;-73
2021/03/01 11:06:36;;;;;;;2.50;2.30;;;20.20;44.20;;;;;;5073504;28;20477;-72
2021/03/01 11:09:03;;;;;;;2.13;2.00;;;20.20;44.20;;;;;;5075206;28;20485;-72
2021/03/01 11:11:29;;;;;;;2.57;2.23;;;20.20;44.30;;;;;;5076006;28;20473;-72
2021/03/01 11:13:55;;;;;;;2.97;2.77;;;20.20;44.30;;;;;;5073186;28;20549;-72
2021/03/01 11:16:22;;;;;;;2.90;2.70;;;20.20;44.30;;;;;;5071983;28;20579;-70
2021/03/01 11:18:48;;;;;;;2.03;1.93;;;20.20;44.30;;;;;;5078821;28;20472;-72
2021/03/01 11:21:15;;;;;;;2.87;2.60;;;20.20;44.10;;;;;;5075859;28;20500;-73
2021/03/01 11:23:41;;;;;;;3.80;2.23;;;20.20;44.10;;;;;;5069956;28;21183;-71
2021/03/01 11:26:07;;;;;;;2.37;2.17;;;20.20;44.20;;;;;;5074621;28;20481;-71
2021/03/01 11:28:34;;;;;;;4.10;2.87;;;20.20;44.20;;;;;;5074975;28;20484;-71
2021/03/01 11:31:00;;;;;;;2.33;2.23;;;20.20;44.20;;;;;;5081202;28;20472;-73
2021/03/01 11:33:26;;;;;;;2.50;2.30;;;20.20;44.20;;;;;;5080793;28;20856;-72
2021/03/01 11:35:54;;;;;;;2.53;2.33;;;20.20;44.30;;;;;;5079569;28;20494;-72
2021/03/01 11:38:22;;;;;;;2.33;2.23;;;20.20;44.30;;;;;;5076357;28;20578;-72
2021/03/01 11:40:48;;;;;;;2.33;2.20;;;20.20;44.30;;;;;;5079691;28;20529;-72
2021/03/01 11:43:14;;;;;;;3.97;3.00;;;20.20;44.30;;;;;;5077757;28;20508;-73
2021/03/01 11:45:40;;;;;;;5.63;2.90;;;20.20;44.40;;;;;;5070818;28;21063;-72
2021/03/01 11:48:10;;;;;;;3.83;3.07;;;20.20;44.40;;;;;;5075940;28;20543;-71
2021/03/01 11:50:36;;;;;;;3.50;3.30;;;20.20;44.40;;;;;;5074099;27;20530;-72
2021/03/01 11:53:02;;;;;;;3.20;2.90;;;20.20;44.40;;;;;;5109745;27;20542;-72
2021/03/01 11:55:29;;;;;;;3.97;3.57;;;20.10;44.40;;;;;;5078677;28;20523;-73
2021/03/01 11:57:56;;;;;;;5.00;3.17;;;20.10;44.40;;;;;;5080063;28;20491;-72
2021/03/01 12:00:22;;;;;;;4.20;3.80;;;20.10;44.40;;;;;;5076087;28;20500;-73
2021/03/01 12:02:48;;;;;;;4.40;4.10;;;20.20;44.50;;;;;;5088032;28;20500;-72
2021/03/01 12:05:15;;;;;;;5.03;4.53;;;20.20;44.40;;;;;;5079166;28;20484;-72
2021/03/01 12:07:41;;;;;;;3.70;3.40;;;20.10;44.50;;;;;;5079550;28;20477;-73
2021/03/01 12:10:08;;;;;;;4.07;3.70;;;20.10;44.60;;;;;;5074496;28;20485;-72
2021/03/01 12:12:35;;;;;;;3.53;3.33;;;20.10;44.60;;;;;;5077487;28;20481;-73
2021/03/01 12:15:01;;;;;;;3.57;3.27;;;20.20;44.50;;;;;;5079498;28;20484;-73
2021/03/01 12:17:28;;;;;;;5.27;4.77;;;20.20;44.30;;;;;;5083243;28;20530;-73
2021/03/01 12:19:54;;;;;;;3.80;3.50;;;20.20;44.30;;;;;;5079481;28;20480;-74
2021/03/01 12:22:20;;;;;;;4.40;4.10;;;20.20;44.30;;;;;;5077697;28;20512;-73
2021/03/01 12:24:47;;;;;;;4.10;3.73;;;20.20;44.40;;;;;;5078532;28;21040;-73
2021/03/01 12:27:13;;;;;;;4.83;3.67;;;20.20;44.40;;;;;;5079241;28;20473;-73
2021/03/01 12:29:40;;;;;;;5.03;4.63;;;20.20;44.60;;;;;;5076071;28;21019;-73
2021/03/01 12:32:06;;;;;;;3.70;3.40;;;20.20;44.50;;;;;;5078468;28;20491;-73
2021/03/01 12:34:34;;;;;;;3.60;3.30;;;20.10;44.40;;;;;;5080148;28;20480;-72
2021/03/01 12:37:00;;;;;;;3.83;3.53;;;20.10;44.40;;;;;;5065007;28;20534;-72
2021/03/01 12:39:26;;;;;;;4.27;3.80;;;20.10;44.30;;;;;;5076014;28;20481;-73
2021/03/01 12:41:52;;;;;;;4.90;3.80;;;20.10;44.40;;;;;;5082023;28;20543;-72
2021/03/01 12:44:19;;;;;;;3.53;3.23;;;20.20;44.50;;;;;;5075858;28;20503;-72
2021/03/01 12:46:46;;;;;;;3.40;3.00;;;20.20;44.40;;;;;;5077984;28;20484;-73
2021/03/01 12:49:13;;;;;;;3.90;3.53;;;20.20;44.50;;;;;;5085187;28;20484;-73